sensor_id;sensor_type;location;lat;lon;timestamp;P1;durP1;ratioP1;P2;durP2;ratioP2
6452;SDS011;3259;51.080;13.712;2022-12-10T00:02:28;5.18;;;4.22;;
6452;SDS011;3259;51.080;13.712;2022-12-10T00:05:17;5.13;;;4.35;;
6452;SDS011;3259;51.080;13.712;2022-12-10T00:08:07;5.50;;;4.03;;
6452;SDS011;3259;51.080;13.712;2022-12-10T00:10:55;4.20;;;3.83;;
6452;SDS011;3259;51.080;13.712;2022-12-10T00:13:45;4.32;;;3.92;;
6452;SDS011;3259;51.080;13.712;2022-12-10T00:16:34;5.43;;;3.58;;
6452;SDS011;3259;51.080;13.712;2022-12-10T00:19:23;3.78;;;3.22;;
6452;SDS011;3259;51.080;13.712;2022-12-10T00:22:11;4.95;;;3.70;;
6452;SDS011;3259;51.080;13.712;2022-12-10T00:25:01;5.82;;;3.15;;
6452;SDS011;3259;51.080;13.712;2022-12-10T00:27:51;5.22;;;3.90;;
6452;SDS011;3259;51.080;13.712;2022-12-10T00:30:39;4.43;;;3.63;;
6452;SDS011;3259;51.080;13.712;2022-12-10T00:33:28;4.85;;;3.70;;
6452;SDS011;3259;51.080;13.712;2022-12-10T00:36:17;4.43;;;3.60;;
6452;SDS011;3259;51.080;13.712;2022-12-10T00:39:08;6.22;;;3.70;;
6452;SDS011;3259;51.080;13.712;2022-12-10T00:41:59;3.92;;;3.50;;
6452;SDS011;3259;51.080;13.712;2022-12-10T00:44:48;3.72;;;3.42;;
6452;SDS011;3259;51.080;13.712;2022-12-10T00:47:37;3.38;;;3.08;;
6452;SDS011;3259;51.080;13.712;2022-12-10T00:50:25;3.55;;;3.25;;
6452;SDS011;3259;51.080;13.712;2022-12-10T00:53:14;2.83;;;2.60;;
6452;SDS011;3259;51.080;13.712;2022-12-10T00:56:03;3.05;;;2.78;;
6452;SDS011;3259;51.080;13.712;2022-12-10T00:58:54;3.45;;;2.55;;
6452;SDS011;3259;51.080;13.712;2022-12-10T01:01:43;3.88;;;2.88;;
6452;SDS011;3259;51.080;13.712;2022-12-10T01:04:31;2.55;;;2.33;;
6452;SDS011;3259;51.080;13.712;2022-12-10T01:07:20;2.60;;;2.40;;
6452;SDS011;3259;51.080;13.712;2022-12-10T01:10:09;3.30;;;2.92;;
6452;SDS011;3259;51.080;13.712;2022-12-10T01:12:57;3.47;;;3.00;;
6452;SDS011;3259;51.080;13.712;2022-12-10T01:15:47;3.22;;;2.70;;
6452;SDS011;3259;51.080;13.712;2022-12-10T01:18:36;2.78;;;2.45;;
6452;SDS011;3259;51.080;13.712;2022-12-10T01:21:25;2.83;;;2.60;;
6452;SDS011;3259;51.080;13.712;2022-12-10T01:24:15;2.25;;;2.03;;
6452;SDS011;3259;51.080;13.712;2022-12-10T01:27:04;3.03;;;2.03;;
6452;SDS011;3259;51.080;13.712;2022-12-10T01:29:53;2.60;;;2.40;;
6452;SDS011;3259;51.080;13.712;2022-12-10T01:32:43;2.40;;;2.20;;
6452;SDS011;3259;51.080;13.712;2022-12-10T01:35:31;2.38;;;2.17;;
6452;SDS011;3259;51.080;13.712;2022-12-10T01:38:24;2.40;;;2.20;;
6452;SDS011;3259;51.080;13.712;2022-12-10T01:41:13;2.67;;;2.47;;
6452;SDS011;3259;51.080;13.712;2022-12-10T01:44:05;1.88;;;1.77;;
6452;SDS011;3259;51.080;13.712;2022-12-10T01:47:30;1.90;;;1.80;;
6452;SDS011;3259;51.080;13.712;2022-12-10T01:50:20;2.03;;;1.88;;
6452;SDS011;3259;51.080;13.712;2022-12-10T01:53:09;2.25;;;2.05;;
6452;SDS011;3259;51.080;13.712;2022-12-10T01:55:58;2.30;;;2.03;;
6452;SDS011;3259;51.080;13.712;2022-12-10T01:58:47;2.50;;;2.35;;
6452;SDS011;3259;51.080;13.712;2022-12-10T02:01:39;1.80;;;1.70;;
6452;SDS011;3259;51.080;13.712;2022-12-10T02:04:33;1.55;;;1.45;;
6452;SDS011;3259;51.080;13.712;2022-12-10T02:07:27;1.83;;;1.73;;
6452;SDS011;3259;51.080;13.712;2022-12-10T02:10:24;2.13;;;1.92;;
6452;SDS011;3259;51.080;13.712;2022-12-10T02:13:21;2.15;;;2.00;;
6452;SDS011;3259;51.080;13.712;2022-12-10T02:16:14;2.03;;;1.80;;
6452;SDS011;3259;51.080;13.712;2022-12-10T02:19:06;1.50;;;1.40;;
6452;SDS011;3259;51.080;13.712;2022-12-10T02:21:58;1.77;;;1.63;;
6452;SDS011;3259;51.080;13.712;2022-12-10T02:24:49;1.67;;;1.58;;
6452;SDS011;3259;51.080;13.712;2022-12-10T02:27:41;1.80;;;1.70;;
6452;SDS011;3259;51.080;13.712;2022-12-10T02:30:34;1.50;;;1.40;;
6452;SDS011;3259;51.080;13.712;2022-12-10T02:33:23;1.52;;;1.42;;
6452;SDS011;3259;51.080;13.712;2022-12-10T02:36:13;1.48;;;1.38;;
6452;SDS011;3259;51.080;13.712;2022-12-10T02:39:02;1.75;;;1.65;;
6452;SDS011;3259;51.080;13.712;2022-12-10T02:41:53;1.52;;;1.42;;
6452;SDS011;3259;51.080;13.712;2022-12-10T02:44:42;1.35;;;1.25;;
6452;SDS011;3259;51.080;13.712;2022-12-10T02:47:34;1.77;;;1.67;;
6452;SDS011;3259;51.080;13.712;2022-12-10T02:50:23;1.42;;;1.33;;
6452;SDS011;3259;51.080;13.712;2022-12-10T02:53:12;1.70;;;1.60;;
6452;SDS011;3259;51.080;13.712;2022-12-10T02:56:06;1.50;;;1.40;;
6452;SDS011;3259;51.080;13.712;2022-12-10T02:59:01;1.45;;;1.35;;
6452;SDS011;3259;51.080;13.712;2022-12-10T03:01:56;1.23;;;1.13;;
6452;SDS011;3259;51.080;13.712;2022-12-10T03:04:53;2.03;;;1.33;;
6452;SDS011;3259;51.080;13.712;2022-12-10T03:07:47;1.20;;;1.10;;
6452;SDS011;3259;51.080;13.712;2022-12-10T03:10:37;5.13;;;1.70;;
6452;SDS011;3259;51.080;13.712;2022-12-10T03:13:31;1.40;;;1.30;;
6452;SDS011;3259;51.080;13.712;2022-12-10T03:16:25;1.13;;;0.93;;
6452;SDS011;3259;51.080;13.712;2022-12-10T03:19:17;1.20;;;1.20;;
6452;SDS011;3259;51.080;13.712;2022-12-10T03:22:08;1.27;;;1.27;;
6452;SDS011;3259;51.080;13.712;2022-12-10T03:25:00;1.30;;;1.30;;
6452;SDS011;3259;51.080;13.712;2022-12-10T03:27:49;0.93;;;0.93;;
6452;SDS011;3259;51.080;13.712;2022-12-10T03:30:40;1.23;;;1.23;;
6452;SDS011;3259;51.080;13.712;2022-12-10T03:33:29;1.25;;;1.13;;
6452;SDS011;3259;51.080;13.712;2022-12-10T03:36:18;1.23;;;1.20;;
6452;SDS011;3259;51.080;13.712;2022-12-10T03:39:08;3.92;;;1.27;;
6452;SDS011;3259;51.080;13.712;2022-12-10T03:41:57;0.80;;;0.80;;
6452;SDS011;3259;51.080;13.712;2022-12-10T03:44:49;1.30;;;1.30;;
6452;SDS011;3259;51.080;13.712;2022-12-10T03:47:39;1.30;;;1.20;;
6452;SDS011;3259;51.080;13.712;2022-12-10T03:50:28;1.23;;;1.23;;
6452;SDS011;3259;51.080;13.712;2022-12-10T03:53:16;0.88;;;0.88;;
6452;SDS011;3259;51.080;13.712;2022-12-10T03:56:06;0.90;;;0.90;;
6452;SDS011;3259;51.080;13.712;2022-12-10T03:58:55;0.80;;;0.80;;
6452;SDS011;3259;51.080;13.712;2022-12-10T04:01:44;1.00;;;1.00;;
6452;SDS011;3259;51.080;13.712;2022-12-10T04:04:32;1.38;;;1.27;;
6452;SDS011;3259;51.080;13.712;2022-12-10T04:07:21;1.08;;;1.08;;
6452;SDS011;3259;51.080;13.712;2022-12-10T04:10:10;0.80;;;0.80;;
6452;SDS011;3259;51.080;13.712;2022-12-10T04:13:00;1.20;;;1.20;;
6452;SDS011;3259;51.080;13.712;2022-12-10T04:16:07;0.88;;;0.88;;
6452;SDS011;3259;51.080;13.712;2022-12-10T04:19:15;0.77;;;0.77;;
6452;SDS011;3259;51.080;13.712;2022-12-10T04:22:05;0.80;;;0.80;;
6452;SDS011;3259;51.080;13.712;2022-12-10T04:25:11;1.20;;;1.08;;
6452;SDS011;3259;51.080;13.712;2022-12-10T04:28:19;0.60;;;0.60;;
6452;SDS011;3259;51.080;13.712;2022-12-10T04:31:08;1.48;;;0.93;;
6452;SDS011;3259;51.080;13.712;2022-12-10T04:33:57;0.60;;;0.60;;
6452;SDS011;3259;51.080;13.712;2022-12-10T04:36:46;0.98;;;0.70;;
6452;SDS011;3259;51.080;13.712;2022-12-10T04:39:34;1.25;;;1.15;;
6452;SDS011;3259;51.080;13.712;2022-12-10T04:42:23;0.80;;;0.80;;
6452;SDS011;3259;51.080;13.712;2022-12-10T04:45:13;0.85;;;0.85;;
6452;SDS011;3259;51.080;13.712;2022-12-10T04:48:02;0.77;;;0.77;;
6452;SDS011;3259;51.080;13.712;2022-12-10T04:50:51;0.82;;;0.82;;
6452;SDS011;3259;51.080;13.712;2022-12-10T04:53:39;0.63;;;0.63;;
6452;SDS011;3259;51.080;13.712;2022-12-10T04:56:28;0.65;;;0.65;;
6452;SDS011;3259;51.080;13.712;2022-12-10T04:59:17;0.70;;;0.70;;
6452;SDS011;3259;51.080;13.712;2022-12-10T05:02:07;0.70;;;0.70;;
6452;SDS011;3259;51.080;13.712;2022-12-10T05:04:56;0.70;;;0.70;;
6452;SDS011;3259;51.080;13.712;2022-12-10T05:07:45;0.70;;;0.70;;
6452;SDS011;3259;51.080;13.712;2022-12-10T05:10:33;0.80;;;0.80;;
6452;SDS011;3259;51.080;13.712;2022-12-10T05:13:22;1.10;;;1.10;;
6452;SDS011;3259;51.080;13.712;2022-12-10T05:16:12;1.08;;;0.70;;
6452;SDS011;3259;51.080;13.712;2022-12-10T05:19:04;0.90;;;0.90;;
6452;SDS011;3259;51.080;13.712;2022-12-10T05:21:53;0.50;;;0.50;;
6452;SDS011;3259;51.080;13.712;2022-12-10T05:24:59;0.70;;;0.70;;
6452;SDS011;3259;51.080;13.712;2022-12-10T05:27:48;0.60;;;0.60;;
6452;SDS011;3259;51.080;13.712;2022-12-10T05:30:36;0.90;;;0.60;;
6452;SDS011;3259;51.080;13.712;2022-12-10T05:33:25;0.85;;;0.60;;
6452;SDS011;3259;51.080;13.712;2022-12-10T05:36:16;0.95;;;0.60;;
6452;SDS011;3259;51.080;13.712;2022-12-10T05:39:06;0.43;;;0.43;;
6452;SDS011;3259;51.080;13.712;2022-12-10T05:41:55;0.57;;;0.57;;
6452;SDS011;3259;51.080;13.712;2022-12-10T05:44:44;0.70;;;0.70;;
6452;SDS011;3259;51.080;13.712;2022-12-10T05:47:33;0.80;;;0.63;;
6452;SDS011;3259;51.080;13.712;2022-12-10T05:50:23;0.57;;;0.57;;
6452;SDS011;3259;51.080;13.712;2022-12-10T05:53:13;0.75;;;0.73;;
6452;SDS011;3259;51.080;13.712;2022-12-10T05:56:05;0.50;;;0.50;;
6452;SDS011;3259;51.080;13.712;2022-12-10T05:58:57;0.50;;;0.50;;
6452;SDS011;3259;51.080;13.712;2022-12-10T06:01:46;0.55;;;0.55;;
6452;SDS011;3259;51.080;13.712;2022-12-10T06:04:35;0.43;;;0.43;;
6452;SDS011;3259;51.080;13.712;2022-12-10T06:07:24;0.50;;;0.40;;
6452;SDS011;3259;51.080;13.712;2022-12-10T06:10:14;1.08;;;0.50;;
6452;SDS011;3259;51.080;13.712;2022-12-10T06:13:03;0.30;;;0.30;;
6452;SDS011;3259;51.080;13.712;2022-12-10T06:15:52;0.50;;;0.50;;
6452;SDS011;3259;51.080;13.712;2022-12-10T06:18:41;0.40;;;0.40;;
6452;SDS011;3259;51.080;13.712;2022-12-10T06:21:30;2.08;;;0.50;;
6452;SDS011;3259;51.080;13.712;2022-12-10T06:24:18;2.70;;;0.60;;
6452;SDS011;3259;51.080;13.712;2022-12-10T06:27:08;3.72;;;0.30;;
6452;SDS011;3259;51.080;13.712;2022-12-10T06:29:57;2.05;;;0.40;;
6452;SDS011;3259;51.080;13.712;2022-12-10T06:32:46;0.50;;;0.50;;
6452;SDS011;3259;51.080;13.712;2022-12-10T06:35:34;0.50;;;0.50;;
6452;SDS011;3259;51.080;13.712;2022-12-10T06:38:25;0.65;;;0.57;;
6452;SDS011;3259;51.080;13.712;2022-12-10T06:41:14;1.20;;;0.40;;
6452;SDS011;3259;51.080;13.712;2022-12-10T06:44:07;2.13;;;0.50;;
6452;SDS011;3259;51.080;13.712;2022-12-10T06:46:56;0.65;;;0.65;;
6452;SDS011;3259;51.080;13.712;2022-12-10T06:49:45;0.73;;;0.40;;
6452;SDS011;3259;51.080;13.712;2022-12-10T06:52:33;0.32;;;0.32;;
6452;SDS011;3259;51.080;13.712;2022-12-10T06:55:22;0.40;;;0.40;;
6452;SDS011;3259;51.080;13.712;2022-12-10T06:58:11;0.30;;;0.30;;
6452;SDS011;3259;51.080;13.712;2022-12-10T07:01:05;0.40;;;0.40;;
6452;SDS011;3259;51.080;13.712;2022-12-10T07:03:54;0.40;;;0.40;;
6452;SDS011;3259;51.080;13.712;2022-12-10T07:06:44;0.63;;;0.50;;
6452;SDS011;3259;51.080;13.712;2022-12-10T07:09:33;0.45;;;0.43;;
6452;SDS011;3259;51.080;13.712;2022-12-10T07:12:21;0.40;;;0.40;;
6452;SDS011;3259;51.080;13.712;2022-12-10T07:15:10;0.40;;;0.40;;
6452;SDS011;3259;51.080;13.712;2022-12-10T07:18:00;0.47;;;0.47;;
6452;SDS011;3259;51.080;13.712;2022-12-10T07:20:49;0.32;;;0.32;;
6452;SDS011;3259;51.080;13.712;2022-12-10T07:23:37;0.38;;;0.38;;
6452;SDS011;3259;51.080;13.712;2022-12-10T07:26:27;0.43;;;0.40;;
6452;SDS011;3259;51.080;13.712;2022-12-10T07:29:18;0.47;;;0.40;;
6452;SDS011;3259;51.080;13.712;2022-12-10T07:32:08;0.40;;;0.40;;
6452;SDS011;3259;51.080;13.712;2022-12-10T07:34:58;0.20;;;0.20;;
6452;SDS011;3259;51.080;13.712;2022-12-10T07:37:46;0.52;;;0.52;;
6452;SDS011;3259;51.080;13.712;2022-12-10T07:40:35;0.40;;;0.40;;
6452;SDS011;3259;51.080;13.712;2022-12-10T07:43:24;0.30;;;0.30;;
6452;SDS011;3259;51.080;13.712;2022-12-10T07:46:15;0.40;;;0.40;;
6452;SDS011;3259;51.080;13.712;2022-12-10T07:49:05;15.57;;;10.50;;
6452;SDS011;3259;51.080;13.712;2022-12-10T07:51:56;23.33;;;14.27;;
6452;SDS011;3259;51.080;13.712;2022-12-10T07:54:44;26.45;;;17.27;;
6452;SDS011;3259;51.080;13.712;2022-12-10T07:57:33;28.05;;;19.85;;
6452;SDS011;3259;51.080;13.712;2022-12-10T08:00:22;26.08;;;18.30;;
6452;SDS011;3259;51.080;13.712;2022-12-10T08:03:10;22.40;;;15.00;;
6452;SDS011;3259;51.080;13.712;2022-12-10T08:06:02;22.48;;;14.57;;
6452;SDS011;3259;51.080;13.712;2022-12-10T08:08:53;18.70;;;12.32;;
6452;SDS011;3259;51.080;13.712;2022-12-10T08:11:42;17.98;;;12.15;;
6452;SDS011;3259;51.080;13.712;2022-12-10T08:14:31;17.70;;;11.30;;
6452;SDS011;3259;51.080;13.712;2022-12-10T08:17:20;19.45;;;9.73;;
6452;SDS011;3259;51.080;13.712;2022-12-10T08:20:09;20.30;;;10.68;;
6452;SDS011;3259;51.080;13.712;2022-12-10T08:22:58;13.48;;;9.38;;
6452;SDS011;3259;51.080;13.712;2022-12-10T08:25:48;12.65;;;8.80;;
6452;SDS011;3259;51.080;13.712;2022-12-10T08:28:36;11.07;;;8.82;;
6452;SDS011;3259;51.080;13.712;2022-12-10T08:31:25;10.75;;;8.07;;
6452;SDS011;3259;51.080;13.712;2022-12-10T08:34:22;10.60;;;7.75;;
6452;SDS011;3259;51.080;13.712;2022-12-10T08:37:11;10.77;;;7.38;;
6452;SDS011;3259;51.080;13.712;2022-12-10T08:40:00;9.55;;;6.70;;
6452;SDS011;3259;51.080;13.712;2022-12-10T08:42:50;8.18;;;6.50;;
6452;SDS011;3259;51.080;13.712;2022-12-10T08:45:43;10.85;;;6.45;;
6452;SDS011;3259;51.080;13.712;2022-12-10T08:48:32;8.57;;;6.07;;
6452;SDS011;3259;51.080;13.712;2022-12-10T08:51:21;8.00;;;6.13;;
6452;SDS011;3259;51.080;13.712;2022-12-10T08:54:10;8.38;;;6.05;;
6452;SDS011;3259;51.080;13.712;2022-12-10T08:56:58;14.68;;;6.43;;
6452;SDS011;3259;51.080;13.712;2022-12-10T08:59:49;16.38;;;7.03;;
6452;SDS011;3259;51.080;13.712;2022-12-10T09:02:38;9.65;;;6.25;;
6452;SDS011;3259;51.080;13.712;2022-12-10T09:05:27;10.18;;;5.97;;
6452;SDS011;3259;51.080;13.712;2022-12-10T09:08:15;8.48;;;6.00;;
6452;SDS011;3259;51.080;13.712;2022-12-10T09:11:05;8.25;;;5.82;;
6452;SDS011;3259;51.080;13.712;2022-12-10T09:13:55;10.30;;;5.45;;
6452;SDS011;3259;51.080;13.712;2022-12-10T09:16:46;8.70;;;5.35;;
6452;SDS011;3259;51.080;13.712;2022-12-10T09:19:34;8.02;;;5.05;;
6452;SDS011;3259;51.080;13.712;2022-12-10T09:22:23;9.70;;;4.72;;
6452;SDS011;3259;51.080;13.712;2022-12-10T09:25:12;16.25;;;5.47;;
6452;SDS011;3259;51.080;13.712;2022-12-10T09:28:01;8.15;;;5.22;;
6452;SDS011;3259;51.080;13.712;2022-12-10T09:30:54;7.88;;;4.80;;
6452;SDS011;3259;51.080;13.712;2022-12-10T09:33:45;8.70;;;5.63;;
6452;SDS011;3259;51.080;13.712;2022-12-10T09:36:34;8.32;;;4.63;;
6452;SDS011;3259;51.080;13.712;2022-12-10T09:39:23;4.95;;;4.15;;
6452;SDS011;3259;51.080;13.712;2022-12-10T09:42:16;5.15;;;4.45;;
6452;SDS011;3259;51.080;13.712;2022-12-10T09:45:11;36.53;;;6.47;;
6452;SDS011;3259;51.080;13.712;2022-12-10T09:48:04;20.50;;;5.78;;
6452;SDS011;3259;51.080;13.712;2022-12-10T09:51:05;34.42;;;8.82;;
6452;SDS011;3259;51.080;13.712;2022-12-10T09:53:57;55.65;;;11.32;;
6452;SDS011;3259;51.080;13.712;2022-12-10T09:56:47;28.15;;;9.52;;
6452;SDS011;3259;51.080;13.712;2022-12-10T09:59:37;107.35;;;13.68;;
6452;SDS011;3259;51.080;13.712;2022-12-10T10:02:29;42.33;;;8.63;;
6452;SDS011;3259;51.080;13.712;2022-12-10T10:05:20;74.50;;;11.27;;
6452;SDS011;3259;51.080;13.712;2022-12-10T10:08:14;47.22;;;11.82;;
6452;SDS011;3259;51.080;13.712;2022-12-10T10:11:05;94.00;;;14.27;;
6452;SDS011;3259;51.080;13.712;2022-12-10T10:13:58;31.95;;;10.23;;
6452;SDS011;3259;51.080;13.712;2022-12-10T10:16:48;38.40;;;10.38;;
6452;SDS011;3259;51.080;13.712;2022-12-10T10:19:39;32.05;;;8.43;;
6452;SDS011;3259;51.080;13.712;2022-12-10T10:22:27;35.72;;;8.88;;
6452;SDS011;3259;51.080;13.712;2022-12-10T10:25:18;23.38;;;7.50;;
6452;SDS011;3259;51.080;13.712;2022-12-10T10:28:09;27.20;;;6.72;;
6452;SDS011;3259;51.080;13.712;2022-12-10T10:31:00;25.23;;;6.95;;
6452;SDS011;3259;51.080;13.712;2022-12-10T10:33:49;20.67;;;7.43;;
6452;SDS011;3259;51.080;13.712;2022-12-10T10:36:43;26.35;;;6.65;;
6452;SDS011;3259;51.080;13.712;2022-12-10T10:39:32;19.40;;;7.47;;
6452;SDS011;3259;51.080;13.712;2022-12-10T10:42:27;20.33;;;7.10;;
6452;SDS011;3259;51.080;13.712;2022-12-10T10:45:33;19.27;;;8.15;;
6452;SDS011;3259;51.080;13.712;2022-12-10T10:48:24;15.15;;;7.78;;
6452;SDS011;3259;51.080;13.712;2022-12-10T10:51:15;17.00;;;6.85;;
6452;SDS011;3259;51.080;13.712;2022-12-10T10:54:09;11.40;;;6.28;;
6452;SDS011;3259;51.080;13.712;2022-12-10T10:56:58;11.70;;;6.85;;
6452;SDS011;3259;51.080;13.712;2022-12-10T10:59:52;11.70;;;5.80;;
6452;SDS011;3259;51.080;13.712;2022-12-10T11:02:42;8.98;;;4.95;;
6452;SDS011;3259;51.080;13.712;2022-12-10T11:05:31;9.93;;;5.15;;
6452;SDS011;3259;51.080;13.712;2022-12-10T11:08:23;10.52;;;5.53;;
6452;SDS011;3259;51.080;13.712;2022-12-10T11:11:17;21.60;;;6.20;;
6452;SDS011;3259;51.080;13.712;2022-12-10T11:14:20;10.95;;;6.35;;
6452;SDS011;3259;51.080;13.712;2022-12-10T11:17:17;14.98;;;6.18;;
6452;SDS011;3259;51.080;13.712;2022-12-10T11:20:15;12.13;;;6.13;;
6452;SDS011;3259;51.080;13.712;2022-12-10T11:23:08;7.80;;;6.18;;
6452;SDS011;3259;51.080;13.712;2022-12-10T11:26:01;7.93;;;5.20;;
6452;SDS011;3259;51.080;13.712;2022-12-10T11:28:57;12.43;;;6.90;;
6452;SDS011;3259;51.080;13.712;2022-12-10T11:31:55;8.48;;;5.50;;
6452;SDS011;3259;51.080;13.712;2022-12-10T11:35:02;8.43;;;5.55;;
6452;SDS011;3259;51.080;13.712;2022-12-10T11:37:59;16.55;;;6.43;;
6452;SDS011;3259;51.080;13.712;2022-12-10T11:40:54;17.33;;;6.38;;
6452;SDS011;3259;51.080;13.712;2022-12-10T11:44:06;13.27;;;7.20;;
6452;SDS011;3259;51.080;13.712;2022-12-10T11:47:08;8.25;;;5.18;;
6452;SDS011;3259;51.080;13.712;2022-12-10T11:50:13;9.52;;;5.03;;
6452;SDS011;3259;51.080;13.712;2022-12-10T11:53:13;9.63;;;5.22;;
6452;SDS011;3259;51.080;13.712;2022-12-10T11:56:08;5.80;;;4.80;;
6452;SDS011;3259;51.080;13.712;2022-12-10T11:59:11;5.80;;;4.20;;
6452;SDS011;3259;51.080;13.712;2022-12-10T12:05:17;6.18;;;4.28;;
6452;SDS011;3259;51.080;13.712;2022-12-10T12:08:12;6.38;;;4.00;;
6452;SDS011;3259;51.080;13.712;2022-12-10T12:11:08;6.75;;;4.25;;
6452;SDS011;3259;51.080;13.712;2022-12-10T12:14:04;6.32;;;4.10;;
6452;SDS011;3259;51.080;13.712;2022-12-10T12:17:00;4.25;;;3.58;;
6452;SDS011;3259;51.080;13.712;2022-12-10T12:19:53;6.32;;;3.85;;
6452;SDS011;3259;51.080;13.712;2022-12-10T12:22:45;6.32;;;3.22;;
6452;SDS011;3259;51.080;13.712;2022-12-10T12:25:38;4.28;;;3.17;;
6452;SDS011;3259;51.080;13.712;2022-12-10T12:28:30;4.72;;;3.08;;
6452;SDS011;3259;51.080;13.712;2022-12-10T12:31:22;3.92;;;3.08;;
6452;SDS011;3259;51.080;13.712;2022-12-10T12:34:17;4.88;;;3.03;;
6452;SDS011;3259;51.080;13.712;2022-12-10T12:37:07;4.88;;;2.60;;
6452;SDS011;3259;51.080;13.712;2022-12-10T12:40:00;4.18;;;3.28;;
6452;SDS011;3259;51.080;13.712;2022-12-10T12:42:52;3.20;;;2.88;;
6452;SDS011;3259;51.080;13.712;2022-12-10T12:45:45;2.78;;;2.53;;
6452;SDS011;3259;51.080;13.712;2022-12-10T12:48:37;2.63;;;2.35;;
6452;SDS011;3259;51.080;13.712;2022-12-10T12:51:31;2.83;;;2.25;;
6452;SDS011;3259;51.080;13.712;2022-12-10T12:54:22;3.15;;;2.70;;
6452;SDS011;3259;51.080;13.712;2022-12-10T12:57:13;3.75;;;2.35;;
6452;SDS011;3259;51.080;13.712;2022-12-10T13:00:10;6.80;;;2.95;;
6452;SDS011;3259;51.080;13.712;2022-12-10T13:03:07;2.38;;;2.17;;
6452;SDS011;3259;51.080;13.712;2022-12-10T13:06:17;3.05;;;2.50;;
6452;SDS011;3259;51.080;13.712;2022-12-10T13:09:16;2.10;;;2.00;;
6452;SDS011;3259;51.080;13.712;2022-12-10T13:12:26;2.33;;;2.13;;
6452;SDS011;3259;51.080;13.712;2022-12-10T13:15:17;3.75;;;2.20;;
6452;SDS011;3259;51.080;13.712;2022-12-10T13:18:21;2.58;;;2.35;;
6452;SDS011;3259;51.080;13.712;2022-12-10T13:21:28;2.25;;;2.00;;
6452;SDS011;3259;51.080;13.712;2022-12-10T13:24:19;6.32;;;2.28;;
6452;SDS011;3259;51.080;13.712;2022-12-10T13:27:14;2.42;;;2.17;;
6452;SDS011;3259;51.080;13.712;2022-12-10T13:30:26;1.90;;;1.80;;
6452;SDS011;3259;51.080;13.712;2022-12-10T13:33:22;2.63;;;1.83;;
6452;SDS011;3259;51.080;13.712;2022-12-10T13:36:10;6.65;;;1.67;;
6452;SDS011;3259;51.080;13.712;2022-12-10T13:39:10;1.70;;;1.60;;
6452;SDS011;3259;51.080;13.712;2022-12-10T13:42:25;1.75;;;1.65;;
6452;SDS011;3259;51.080;13.712;2022-12-10T13:45:35;2.88;;;2.15;;
6452;SDS011;3259;51.080;13.712;2022-12-10T13:48:30;2.22;;;1.70;;
6452;SDS011;3259;51.080;13.712;2022-12-10T13:54:54;2.75;;;1.50;;
6452;SDS011;3259;51.080;13.712;2022-12-10T13:58:32;3.40;;;1.60;;
6452;SDS011;3259;51.080;13.712;2022-12-10T14:01:32;1.55;;;1.45;;
6452;SDS011;3259;51.080;13.712;2022-12-10T14:04:34;2.45;;;1.13;;
6452;SDS011;3259;51.080;13.712;2022-12-10T14:07:30;1.60;;;1.50;;
6452;SDS011;3259;51.080;13.712;2022-12-10T14:10:19;2.08;;;1.88;;
6452;SDS011;3259;51.080;13.712;2022-12-10T14:13:11;1.80;;;1.70;;
6452;SDS011;3259;51.080;13.712;2022-12-10T14:16:01;1.40;;;1.30;;
6452;SDS011;3259;51.080;13.712;2022-12-10T14:18:53;2.35;;;1.42;;
6452;SDS011;3259;51.080;13.712;2022-12-10T14:21:45;1.30;;;1.05;;
6452;SDS011;3259;51.080;13.712;2022-12-10T14:24:35;5.32;;;1.23;;
6452;SDS011;3259;51.080;13.712;2022-12-10T14:27:25;1.63;;;1.52;;
6452;SDS011;3259;51.080;13.712;2022-12-10T14:30:15;2.60;;;1.75;;
6452;SDS011;3259;51.080;13.712;2022-12-10T14:33:07;2.88;;;1.40;;
6452;SDS011;3259;51.080;13.712;2022-12-10T14:36:02;5.78;;;1.67;;
6452;SDS011;3259;51.080;13.712;2022-12-10T14:38:51;6.35;;;1.63;;
6452;SDS011;3259;51.080;13.712;2022-12-10T14:41:40;2.10;;;1.35;;
6452;SDS011;3259;51.080;13.712;2022-12-10T14:44:28;1.50;;;1.40;;
6452;SDS011;3259;51.080;13.712;2022-12-10T14:47:19;2.75;;;1.10;;
6452;SDS011;3259;51.080;13.712;2022-12-10T14:50:09;0.98;;;0.90;;
6452;SDS011;3259;51.080;13.712;2022-12-10T14:53:01;1.58;;;0.95;;
6452;SDS011;3259;51.080;13.712;2022-12-10T14:55:50;1.20;;;1.10;;
6452;SDS011;3259;51.080;13.712;2022-12-10T14:58:44;1.33;;;1.10;;
6452;SDS011;3259;51.080;13.712;2022-12-10T15:01:39;2.08;;;1.27;;
6452;SDS011;3259;51.080;13.712;2022-12-10T15:04:30;1.77;;;1.35;;
6452;SDS011;3259;51.080;13.712;2022-12-10T15:07:30;0.95;;;0.95;;
6452;SDS011;3259;51.080;13.712;2022-12-10T15:10:24;1.05;;;0.88;;
6452;SDS011;3259;51.080;13.712;2022-12-10T15:13:16;3.58;;;1.00;;
6452;SDS011;3259;51.080;13.712;2022-12-10T15:16:13;1.05;;;1.05;;
6452;SDS011;3259;51.080;13.712;2022-12-10T15:19:09;3.17;;;1.13;;
6452;SDS011;3259;51.080;13.712;2022-12-10T15:22:15;1.10;;;1.10;;
6452;SDS011;3259;51.080;13.712;2022-12-10T15:25:13;1.20;;;1.08;;
6452;SDS011;3259;51.080;13.712;2022-12-10T15:28:21;1.27;;;1.17;;
6452;SDS011;3259;51.080;13.712;2022-12-10T15:31:13;1.30;;;0.93;;
6452;SDS011;3259;51.080;13.712;2022-12-10T15:34:07;1.70;;;1.10;;
6452;SDS011;3259;51.080;13.712;2022-12-10T15:36:59;0.98;;;0.93;;
6452;SDS011;3259;51.080;13.712;2022-12-10T15:39:51;0.98;;;0.98;;
6452;SDS011;3259;51.080;13.712;2022-12-10T15:42:42;1.17;;;1.17;;
6452;SDS011;3259;51.080;13.712;2022-12-10T15:45:38;1.17;;;1.17;;
6452;SDS011;3259;51.080;13.712;2022-12-10T15:48:28;0.95;;;0.70;;
6452;SDS011;3259;51.080;13.712;2022-12-10T15:51:18;1.23;;;0.88;;
6452;SDS011;3259;51.080;13.712;2022-12-10T15:54:12;0.80;;;0.80;;
6452;SDS011;3259;51.080;13.712;2022-12-10T15:57:11;1.30;;;1.20;;
6452;SDS011;3259;51.080;13.712;2022-12-10T16:00:02;1.10;;;1.10;;
6452;SDS011;3259;51.080;13.712;2022-12-10T16:02:54;1.40;;;0.88;;
6452;SDS011;3259;51.080;13.712;2022-12-10T16:05:44;1.00;;;1.00;;
6452;SDS011;3259;51.080;13.712;2022-12-10T16:08:36;1.23;;;0.98;;
6452;SDS011;3259;51.080;13.712;2022-12-10T16:11:24;1.08;;;0.95;;
6452;SDS011;3259;51.080;13.712;2022-12-10T16:14:15;1.27;;;0.98;;
6452;SDS011;3259;51.080;13.712;2022-12-10T16:17:03;0.90;;;0.90;;
6452;SDS011;3259;51.080;13.712;2022-12-10T16:19:55;1.35;;;1.15;;
6452;SDS011;3259;51.080;13.712;2022-12-10T16:22:44;0.80;;;0.80;;
6452;SDS011;3259;51.080;13.712;2022-12-10T16:25:33;1.00;;;0.95;;
6452;SDS011;3259;51.080;13.712;2022-12-10T16:28:24;0.90;;;0.90;;
6452;SDS011;3259;51.080;13.712;2022-12-10T16:31:15;1.02;;;0.98;;
6452;SDS011;3259;51.080;13.712;2022-12-10T16:34:05;1.17;;;1.10;;
6452;SDS011;3259;51.080;13.712;2022-12-10T16:36:55;0.80;;;0.50;;
6452;SDS011;3259;51.080;13.712;2022-12-10T16:39:44;1.10;;;0.85;;
6452;SDS011;3259;51.080;13.712;2022-12-10T16:42:40;0.88;;;0.70;;
6452;SDS011;3259;51.080;13.712;2022-12-10T16:45:30;0.80;;;0.80;;
6452;SDS011;3259;51.080;13.712;2022-12-10T16:48:20;3.10;;;0.90;;
6452;SDS011;3259;51.080;13.712;2022-12-10T16:51:13;0.93;;;0.68;;
6452;SDS011;3259;51.080;13.712;2022-12-10T16:54:05;0.80;;;0.80;;
6452;SDS011;3259;51.080;13.712;2022-12-10T16:56:54;0.65;;;0.65;;
6452;SDS011;3259;51.080;13.712;2022-12-10T16:59:42;0.73;;;0.73;;
6452;SDS011;3259;51.080;13.712;2022-12-10T17:02:31;1.17;;;0.95;;
6452;SDS011;3259;51.080;13.712;2022-12-10T17:05:31;1.23;;;0.90;;
6452;SDS011;3259;51.080;13.712;2022-12-10T17:08:22;0.63;;;0.63;;
6452;SDS011;3259;51.080;13.712;2022-12-10T17:11:17;0.80;;;0.75;;
6452;SDS011;3259;51.080;13.712;2022-12-10T17:14:26;0.50;;;0.50;;
6452;SDS011;3259;51.080;13.712;2022-12-10T17:17:15;1.80;;;0.85;;
6452;SDS011;3259;51.080;13.712;2022-12-10T17:20:09;0.60;;;0.52;;
6452;SDS011;3259;51.080;13.712;2022-12-10T17:23:03;1.27;;;0.77;;
6452;SDS011;3259;51.080;13.712;2022-12-10T17:25:52;0.50;;;0.50;;
6452;SDS011;3259;51.080;13.712;2022-12-10T17:28:42;0.60;;;0.60;;
6452;SDS011;3259;51.080;13.712;2022-12-10T17:31:31;0.50;;;0.50;;
6452;SDS011;3259;51.080;13.712;2022-12-10T17:34:20;0.40;;;0.40;;
6452;SDS011;3259;51.080;13.712;2022-12-10T17:37:10;0.73;;;0.60;;